Time;durP1;ratioP1;P1;durP2;ratioP2;P2;SDS_P1;SDS_P2;PMS_P1;PMS_P2;Temp;Humidity;BMP_temperature;BMP_pressure;BME280_temperature;BME280_humidity;BME280_pressure;Samples;Min_cycle;Max_cycle;Signal;HPM_P1;HPM_P2
2023/03/22 00:01:11;;;;;;;0.10;0.10;;;;;;;29.23;37.15;97867.75;7397328;19;20010;-81
2023/03/22 00:03:38;;;;;;;3.42;0.30;;;;;;;29.21;37.16;97854.06;7392782;19;20011;-80
2023/03/22 00:06:05;;;;;;;0.30;0.30;;;;;;;29.10;37.31;97860.00;7393441;19;20996;-80
2023/03/22 00:08:31;;;;;;;2.50;1.02;;;;;;;29.14;37.03;97848.69;7395484;19;20021;-80
2023/03/22 00:10:57;;;;;;;0.30;0.30;;;;;;;29.15;37.30;97844.44;7390534;19;20030;-80
2023/03/22 00:13:23;;;;;;;0.30;0.30;;;;;;;29.21;37.40;97830.38;7390254;19;20022;-79
2023/03/22 00:15:49;;;;;;;1.10;0.28;;;;;;;29.21;37.40;97842.59;7389174;19;20018;-80
2023/03/22 00:18:17;;;;;;;0.38;0.38;;;;;;;29.24;37.07;97829.06;7393830;19;20011;-80
2023/03/22 00:20:49;;;;;;;3.10;0.55;;;;;;;29.33;36.99;97830.88;7392201;19;20015;-79
2023/03/22 00:23:15;;;;;;;0.10;0.10;;;;;;;29.44;37.28;97823.41;7392071;19;20007;-79
2023/03/22 00:25:43;;;;;;;1.30;0.38;;;;;;;28.24;38.67;97820.41;7391608;19;20007;-79
2023/03/22 00:28:10;;;;;;;0.70;0.25;;;;;;;28.68;38.57;97795.13;7392868;19;20018;-80
2023/03/22 00:30:36;;;;;;;0.10;0.10;;;;;;;29.47;37.46;97802.78;7392932;19;20111;-80
2023/03/22 00:33:03;;;;;;;0.32;0.30;;;;;;;29.66;36.95;97784.88;7389142;19;20019;-80
2023/03/22 00:35:29;;;;;;;4.15;0.65;;;;;;;29.97;36.42;97786.78;7388646;19;20035;-80
2023/03/22 00:37:56;;;;;;;0.45;0.40;;;;;;;29.83;36.65;97778.38;7390696;19;20019;-79
2023/03/22 00:40:22;;;;;;;0.52;0.40;;;;;;;30.11;36.65;97783.69;7391317;19;20018;-80
2023/03/22 00:42:49;;;;;;;0.20;0.13;;;;;;;30.21;36.41;97769.72;7390852;19;20020;-79
2023/03/22 00:45:16;;;;;;;0.10;0.10;;;;;;;29.89;36.94;97770.00;7390707;19;20014;-80
2023/03/22 00:47:42;;;;;;;0.30;0.30;;;;;;;30.70;35.73;97773.66;7392493;19;20454;-80
2023/03/22 00:50:09;;;;;;;0.20;0.20;;;;;;;30.79;35.52;97768.94;7389662;19;20025;-80
2023/03/22 00:52:36;;;;;;;0.30;0.30;;;;;;;31.03;35.14;97758.28;7389477;19;20086;-80
2023/03/22 00:55:02;;;;;;;0.22;0.22;;;;;;;31.07;35.27;97761.28;7389636;19;20029;-80
2023/03/22 00:57:29;;;;;;;0.52;0.45;;;;;;;30.86;35.76;97750.53;7390578;19;20019;-79
2023/03/22 00:59:57;;;;;;;1.17;0.60;;;;;;;30.38;35.82;97728.72;7391922;19;20006;-79
2023/03/22 01:02:28;;;;;;;0.40;0.40;;;;;;;30.70;35.54;97732.69;7391123;19;20014;-79
2023/03/22 01:04:55;;;;;;;0.15;0.10;;;;;;;30.59;35.47;97730.88;7390529;19;20025;-79
2023/03/22 01:07:22;;;;;;;0.10;0.10;;;;;;;30.62;35.46;97729.56;7390794;19;20022;-79
2023/03/22 01:09:52;;;;;;;0.20;0.13;;;;;;;30.60;35.93;97732.34;7387175;19;20031;-80
2023/03/22 01:12:19;;;;;;;0.90;0.40;;;;;;;30.59;35.78;97720.13;7389235;19;20044;-79
2023/03/22 01:14:45;;;;;;;0.20;0.20;;;;;;;30.13;36.06;97717.72;7390123;19;20042;-79
2023/03/22 01:17:12;;;;;;;1.08;0.55;;;;;;;30.10;36.29;97696.09;7390846;19;20026;-80
2023/03/22 01:19:38;;;;;;;0.10;0.10;;;;;;;30.46;35.94;97708.88;7390616;19;20014;-79
2023/03/22 01:22:05;;;;;;;0.17;0.10;;;;;;;30.54;35.97;97698.38;7389719;19;20070;-80
2023/03/22 01:24:32;;;;;;;0.10;0.10;;;;;;;29.78;36.60;97705.00;7389441;19;20027;-79
2023/03/22 01:26:58;;;;;;;0.10;0.10;;;;;;;28.59;37.49;97710.25;7391236;19;20035;-80
2023/03/22 01:29:25;;;;;;;0.20;0.20;;;;;;;28.94;37.79;97693.06;7389511;19;20018;-80
2023/03/22 01:31:51;;;;;;;4.40;0.70;;;;;;;30.01;36.86;97683.59;7388117;19;20029;-80
2023/03/22 01:34:18;;;;;;;0.38;0.38;;;;;;;29.86;36.82;97682.34;7387407;19;20488;-80
2023/03/22 01:36:44;;;;;;;0.22;0.22;;;;;;;29.87;37.23;97685.94;7387730;19;20007;-80
2023/03/22 01:39:10;;;;;;;0.30;0.25;;;;;;;28.34;38.46;97677.69;7385229;19;20010;-79
2023/03/22 01:41:37;;;;;;;0.30;0.28;;;;;;;29.12;38.37;97679.47;7387716;19;20018;-80
2023/03/22 01:44:22;;;;;;;0.43;0.43;;;;;;;29.74;37.51;97667.53;7390270;19;20022;-81
2023/03/22 01:46:50;;;;;;;0.10;0.10;;;;;;;29.79;37.63;97663.44;7390000;19;20015;-81
2023/03/22 01:49:26;;;;;;;0.38;0.38;;;;;;;30.46;36.78;97639.91;7387400;19;20027;-81
2023/03/22 01:51:56;;;;;;;3.30;0.20;;;;;;;29.89;37.38;97652.31;7394102;19;20018;-80
2023/03/22 01:54:51;;;;;;;0.10;0.00;;;;;;;31.19;35.87;97649.47;7394123;19;20022;-80
2023/03/22 01:57:36;;;;;;;0.47;0.47;;;;;;;31.84;35.36;97637.00;7395752;19;20053;-81
2023/03/22 02:00:09;;;;;;;0.17;0.10;;;;;;;32.04;34.66;97641.22;7398963;19;20011;-79
2023/03/22 02:03:03;;;;;;;3.70;0.28;;;;;;;23.40;44.48;97638.28;7396158;19;20017;-80
2023/03/22 02:05:35;;;;;;;1.55;0.55;;;;;;;14.14;100.00;97656.19;7396194;19;20022;-80
2023/03/22 02:08:04;;;;;;;1.38;0.40;;;;;;;12.16;100.00;97666.25;7398643;19;20044;-80
2023/03/22 02:10:47;;;;;;;0.95;0.93;;;;;;;11.98;100.00;97669.91;7393766;19;20042;-80
2023/03/22 02:13:41;;;;;;;0.38;0.20;;;;;;;12.09;100.00;97652.94;7393445;19;20084;-79
2023/03/22 02:17:05;;;;;;;0.20;0.10;;;;;;;11.29;100.00;97655.50;7393053;19;20026;-79
2023/03/22 02:19:47;;;;;;;0.50;0.25;;;;;;;11.13;100.00;97653.75;7393827;19;20039;-80
2023/03/22 02:22:27;;;;;;;0.25;0.25;;;;;;;10.75;100.00;97641.97;7396386;19;20019;-79
2023/03/22 02:25:17;;;;;;;0.30;0.10;;;;;;;13.13;100.00;97634.31;7395592;19;20026;-80
2023/03/22 02:27:55;;;;;;;0.15;0.15;;;;;;;11.14;100.00;97650.44;7398199;19;20015;-80
2023/03/22 02:30:40;;;;;;;0.90;0.68;;;;;;;11.04;100.00;97645.81;7396036;19;20018;-80
2023/03/22 02:33:18;;;;;;;1.00;0.35;;;;;;;11.11;100.00;97628.47;7393451;19;20019;-80
2023/03/22 02:36:10;;;;;;;0.10;0.10;;;;;;;11.03;100.00;97638.72;7392708;19;20048;-80
2023/03/22 02:39:08;;;;;;;2.30;0.20;;;;;;;11.01;100.00;97646.84;7396155;19;20694;-80
2023/03/22 02:41:37;;;;;;;6.03;0.50;;;;;;;11.06;100.00;97637.66;7397982;19;20070;-81
2023/03/22 02:44:18;;;;;;;0.20;0.20;;;;;;;11.09;100.00;97642.16;7394791;19;20010;-80
2023/03/22 02:46:55;;;;;;;0.28;0.28;;;;;;;12.45;100.00;97632.88;7395637;19;20035;-80
2023/03/22 02:49:40;;;;;;;0.10;0.10;;;;;;;20.93;93.75;97621.22;7392837;19;20018;-80
2023/03/22 02:52:16;;;;;;;0.65;0.25;;;;;;;12.67;100.00;97626.78;7391449;19;20353;-80
2023/03/22 02:54:50;;;;;;;0.10;0.10;;;;;;;11.64;100.00;97630.00;7392032;19;20031;-80
2023/03/22 02:57:28;;;;;;;0.20;0.20;;;;;;;11.16;100.00;97633.19;7392736;19;20028;-80
2023/03/22 02:59:57;;;;;;;3.10;0.50;;;;;;;10.73;100.00;97629.84;7395934;19;20022;-80
2023/03/22 03:02:27;;;;;;;0.10;0.10;;;;;;;10.85;100.00;97611.72;7394422;19;20018;-82
2023/03/22 03:04:55;;;;;;;0.20;0.10;;;;;;;11.71;100.00;97595.19;7394926;19;20052;-82
2023/03/22 03:07:29;;;;;;;0.10;0.10;;;;;;;12.49;100.00;97599.81;7396232;19;20483;-81
2023/03/22 03:09:56;;;;;;;0.40;0.20;;;;;;;12.88;100.00;97574.47;7392155;19;20256;-82
2023/03/22 03:12:25;;;;;;;1.85;0.65;;;;;;;11.64;100.00;97568.66;7393943;19;20106;-82
2023/03/22 03:14:54;;;;;;;0.10;0.10;;;;;;;16.48;100.00;97560.69;7394279;19;20024;-81
2023/03/22 03:17:46;;;;;;;0.30;0.30;;;;;;;27.94;70.55;97523.53;7393670;19;20016;-82
2023/03/22 03:20:28;;;;;;;0.17;0.17;;;;;;;29.85;57.69;97516.53;7394106;19;20007;-82
2023/03/22 03:23:23;;;;;;;0.10;0.10;;;;;;;30.44;52.72;97536.44;7393679;19;20503;-82
2023/03/22 03:25:56;;;;;;;0.10;0.00;;;;;;;30.47;50.13;97526.50;7397116;19;20019;-81
2023/03/22 03:28:37;;;;;;;0.20;0.20;;;;;;;30.60;48.45;97534.78;7395829;19;20014;-81
2023/03/22 03:31:12;;;;;;;;;;;;;;;30.66;47.41;97505.53;7396860;19;20089;-82
2023/03/22 03:33:48;;;;;;;0.10;0.00;;;;;;;30.69;46.39;97524.28;7390702;19;19923;-81
2023/03/22 03:36:16;;;;;;;0.10;0.10;;;;;;;30.64;45.50;97531.34;7392159;19;20041;-80
2023/03/22 03:38:47;;;;;;;0.10;0.10;;;;;;;30.24;46.15;97532.88;7394200;19;20019;-82
2023/03/22 03:41:17;;;;;;;0.10;0.10;;;;;;;30.33;45.48;97535.38;7392564;19;20011;-82
2023/03/22 03:43:46;;;;;;;0.10;0.05;;;;;;;30.29;45.47;97540.97;7394608;19;20039;-82
2023/03/22 03:46:13;;;;;;;0.10;0.10;;;;;;;30.49;44.91;97529.41;7394617;19;20033;-81
2023/03/22 03:48:44;;;;;;;0.10;0.10;;;;;;;30.44;44.65;97522.06;7395722;19;20042;-81
2023/03/22 03:51:10;;;;;;;0.28;0.28;;;;;;;30.40;44.68;97516.94;7391143;19;20014;-80
2023/03/22 03:53:36;;;;;;;0.13;0.13;;;;;;;30.44;44.02;97513.47;7391814;19;20110;-81
2023/03/22 03:56:03;;;;;;;0.70;0.70;;;;;;;30.51;44.05;97521.59;7391260;19;20468;-80
2023/03/22 03:58:36;;;;;;;0.10;0.10;;;;;;;30.93;42.91;97513.53;7394028;19;20014;-80
2023/03/22 04:01:02;;;;;;;0.10;0.10;;;;;;;30.94;42.42;97526.53;7395615;19;20011;-80
2023/03/22 04:04:04;;;;;;;0.32;0.10;;;;;;;30.90;42.47;97542.91;7392858;19;20034;-80
2023/03/22 04:06:43;;;;;;;0.10;0.10;;;;;;;30.84;42.44;97534.09;7393045;19;20018;-80
2023/03/22 04:09:15;;;;;;;0.10;0.10;;;;;;;30.80;41.99;97556.97;7390072;19;20022;-81
2023/03/22 04:11:45;;;;;;;0.95;0.43;;;;;;;30.85;42.39;97558.53;7389219;19;20014;-81
2023/03/22 04:14:13;;;;;;;0.10;0.10;;;;;;;30.92;42.28;97549.47;7388834;19;20476;-81
2023/03/22 04:16:39;;;;;;;0.10;0.10;;;;;;;30.99;42.12;97556.84;7390527;19;20014;-81
2023/03/22 04:19:09;;;;;;;1.08;0.20;;;;;;;30.67;42.43;97558.72;7393648;19;20025;-80
2023/03/22 04:21:35;;;;;;;0.10;0.10;;;;;;;30.47;42.54;97566.72;7392010;19;20011;-80
2023/03/22 04:24:02;;;;;;;0.10;0.10;;;;;;;30.28;42.96;97556.72;7392215;19;20018;-81
2023/03/22 04:26:34;;;;;;;2.45;0.17;;;;;;;30.26;42.55;97558.78;7392404;19;20010;-81
2023/03/22 04:29:30;;;;;;;0.10;0.10;;;;;;;29.97;43.03;97562.88;7389488;19;20485;-81
2023/03/22 04:32:08;;;;;;;0.10;0.10;;;;;;;16.82;100.00;97593.09;7389871;19;20010;-80
2023/03/22 04:34:39;;;;;;;0.10;0.10;;;;;;;13.99;100.00;97593.81;7389467;19;20024;-80
2023/03/22 04:37:11;;;;;;;0.10;0.10;;;;;;;13.24;100.00;97603.28;7391769;19;20014;-81
2023/03/22 04:39:58;;;;;;;0.10;0.10;;;;;;;11.97;100.00;97609.84;7388789;19;20014;-80
2023/03/22 04:42:32;;;;;;;0.10;0.10;;;;;;;11.89;100.00;97595.03;7389228;19;20039;-80
2023/03/22 04:45:20;;;;;;;0.10;0.10;;;;;;;11.71;100.00;97597.97;7389272;19;20014;-80
2023/03/22 04:47:53;;;;;;;0.10;0.10;;;;;;;24.54;100.00;97587.41;7392116;19;20018;-81
2023/03/22 04:50:20;;;;;;;0.10;0.10;;;;;;;27.17;79.99;97590.91;7389878;19;20014;-81
2023/03/22 04:52:53;;;;;;;0.10;0.05;;;;;;;33.06;47.94;97593.31;7389483;19;20023;-81
2023/03/22 04:55:19;;;;;;;0.10;0.10;;;;;;;34.33;42.13;97587.91;7389678;19;20357;-81
2023/03/22 04:57:45;;;;;;;0.10;0.10;;;;;;;34.88;39.64;97589.56;7391297;19;20011;-81
2023/03/22 05:00:12;;;;;;;0.75;0.22;;;;;;;34.76;38.19;97603.09;7393119;19;20014;-80
2023/03/22 05:02:39;;;;;;;7.15;0.35;;;;;;;34.64;37.25;97603.63;7390926;19;20021;-80
2023/03/22 05:05:07;;;;;;;2.60;0.25;;;;;;;34.59;36.85;97601.41;7390609;19;20011;-80
2023/03/22 05:07:38;;;;;;;0.13;0.03;;;;;;;33.11;38.33;97606.41;7390751;19;20011;-80
2023/03/22 05:10:06;;;;;;;0.35;0.25;;;;;;;34.74;36.08;97614.66;7388931;19;20509;-80
2023/03/22 05:12:32;;;;;;;0.65;0.50;;;;;;;35.46;34.38;97624.38;7390752;19;20018;-80
2023/03/22 05:15:19;;;;;;;0.45;0.32;;;;;;;35.16;33.02;97626.13;7388981;19;20022;-80
2023/03/22 05:17:47;;;;;;;0.30;0.10;;;;;;;34.93;32.02;97627.97;7391860;19;20010;-80
2023/03/22 05:20:14;;;;;;;0.50;0.47;;;;;;;34.58;32.82;97640.41;7389933;19;20019;-80
2023/03/22 05:22:44;;;;;;;0.28;0.28;;;;;;;34.89;31.84;97640.19;7390587;19;20039;-79
2023/03/22 05:25:10;;;;;;;1.13;0.63;;;;;;;35.23;31.07;97645.78;7390952;19;20048;-80
2023/03/22 05:27:39;;;;;;;0.55;0.55;;;;;;;35.08;30.32;97666.53;7392651;19;20010;-80
2023/03/22 05:30:27;;;;;;;0.20;0.20;;;;;;;34.63;29.63;97665.06;7393281;19;20034;-79
2023/03/22 05:33:10;;;;;;;4.32;0.47;;;;;;;34.59;29.83;97665.00;7391459;19;20028;-80
2023/03/22 05:35:42;;;;;;;0.55;0.55;;;;;;;34.58;29.52;97655.59;7392569;19;20011;-80
2023/03/22 05:38:10;;;;;;;1.45;0.35;;;;;;;34.31;29.47;97660.16;7395086;19;20087;-79
2023/03/22 05:40:39;;;;;;;5.65;0.85;;;;;;;33.91;29.66;97659.38;7396414;19;20011;-80
2023/03/22 05:43:05;;;;;;;0.52;0.47;;;;;;;33.24;30.14;97668.00;7396901;19;20070;-80
2023/03/22 05:45:35;;;;;;;4.50;1.00;;;;;;;32.41;30.79;97682.50;7397100;19;20091;-80
2023/03/22 05:48:20;;;;;;;1.85;0.68;;;;;;;31.12;31.73;97682.34;7400097;19;20025;-79
2023/03/22 05:50:46;;;;;;;0.10;0.10;;;;;;;30.84;32.15;97684.28;7393969;19;20033;-79
2023/03/22 05:53:13;;;;;;;0.73;0.32;;;;;;;31.05;31.69;97683.56;7388864;19;20530;-80
2023/03/22 05:55:51;;;;;;;0.77;0.63;;;;;;;31.13;31.38;97685.94;7389079;19;20019;-79
2023/03/22 05:58:18;;;;;;;3.50;0.98;;;;;;;31.10;31.25;97675.81;7392187;19;20018;-79
2023/03/22 06:00:48;;;;;;;0.20;0.20;;;;;;;30.87;31.10;97679.38;7394425;19;20035;-79
2023/03/22 06:03:35;;;;;;;5.50;0.60;;;;;;;30.56;31.05;97683.34;7390230;19;20039;-79
2023/03/22 06:06:12;;;;;;;0.82;0.82;;;;;;;29.54;32.06;97681.09;7390879;19;20489;-78
2023/03/22 06:08:57;;;;;;;3.08;0.88;;;;;;;29.40;32.04;97680.59;7390008;19;20010;-79
2023/03/22 06:11:23;;;;;;;0.20;0.20;;;;;;;29.41;31.98;97699.25;7388562;19;20031;-78
2023/03/22 06:13:51;;;;;;;5.55;0.88;;;;;;;29.03;32.54;97700.59;7387304;19;20026;-78
2023/03/22 06:16:18;;;;;;;0.50;0.50;;;;;;;29.11;32.18;97701.66;7386865;19;20013;-79
2023/03/22 06:18:44;;;;;;;0.93;0.85;;;;;;;29.03;32.29;97712.06;7391781;19;20489;-79
2023/03/22 06:21:12;;;;;;;3.03;0.80;;;;;;;29.75;31.69;97711.34;7390807;19;20022;-79
2023/03/22 06:23:38;;;;;;;7.13;0.77;;;;;;;29.91;31.35;97709.78;7391516;19;20584;-79
2023/03/22 06:26:05;;;;;;;1.00;0.55;;;;;;;29.28;31.92;97722.41;7392342;19;20022;-79
2023/03/22 06:28:34;;;;;;;7.38;0.85;;;;;;;28.96;32.03;97736.88;7395275;19;20011;-78
2023/03/22 06:31:06;;;;;;;2.58;1.35;;;;;;;29.94;31.20;97737.16;7393191;19;20006;-79
2023/03/22 06:33:41;;;;;;;0.40;0.38;;;;;;;29.57;31.36;97739.28;7390554;19;20095;-79
2023/03/22 06:36:22;;;;;;;0.35;0.35;;;;;;;18.08;50.97;97753.03;7392319;19;20070;-79
2023/03/22 06:39:03;;;;;;;19.70;1.75;;;;;;;28.56;35.53;97743.03;7395993;19;20074;-80
2023/03/22 06:41:30;;;;;;;0.70;0.70;;;;;;;30.40;32.06;97735.25;7398148;19;20037;-80
2023/03/22 06:43:56;;;;;;;5.60;1.48;;;;;;;30.41;31.50;97730.22;7396865;19;20022;-79
2023/03/22 06:46:38;;;;;;;10.10;1.42;;;;;;;30.40;30.78;97740.28;7395803;19;20078;-80
2023/03/22 06:49:13;;;;;;;0.60;0.60;;;;;;;30.52;30.61;97741.41;7394241;19;20366;-79
2023/03/22 06:51:40;;;;;;;6.10;0.95;;;;;;;30.60;30.43;97753.19;7392849;19;20043;-80
2023/03/22 06:54:07;;;;;;;16.55;3.15;;;;;;;30.80;30.11;97758.88;7394542;19;20019;-79
2023/03/22 06:56:33;;;;;;;16.05;1.67;;;;;;;30.77;29.94;97777.50;7392286;19;20018;-80
2023/03/22 06:59:00;;;;;;;1.35;0.65;;;;;;;30.80;30.32;97770.38;7393294;19;20490;-80
2023/03/22 07:01:27;;;;;;;4.00;0.77;;;;;;;30.60;29.71;97775.47;7395772;19;20022;-79
2023/03/22 07:03:53;;;;;;;13.75;2.40;;;;;;;30.72;29.62;97781.63;7396827;19;20006;-80
2023/03/22 07:06:22;;;;;;;7.25;2.08;;;;;;;30.67;29.79;97788.63;7403374;19;20023;-80
2023/03/22 07:08:49;;;;;;;4.55;0.88;;;;;;;30.65;29.52;97805.78;7400555;19;20015;-79
2023/03/22 07:11:20;;;;;;;0.40;0.30;;;;;;;30.54;29.49;97790.34;7392155;19;20070;-79
2023/03/22 07:13:53;;;;;;;10.70;1.10;;;;;;;30.31;29.45;97790.94;7393436;19;20354;-79
2023/03/22 07:16:21;;;;;;;17.45;1.52;;;;;;;30.29;29.66;97787.25;7394088;19;20018;-80
2023/03/22 07:18:51;;;;;;;5.22;1.45;;;;;;;30.39;29.47;97799.09;7396020;19;20011;-79
2023/03/22 07:21:18;;;;;;;13.48;2.00;;;;;;;30.44;29.77;97809.34;7395140;19;20018;-78
2023/03/22 07:23:49;;;;;;;28.10;2.70;;;;;;;30.39;29.26;97807.72;7395001;19;20035;-78
2023/03/22 07:26:18;;;;;;;16.67;1.48;;;;;;;29.28;30.63;97812.03;7393613;19;20345;-80
2023/03/22 07:28:47;;;;;;;14.20;1.23;;;;;;;29.76;30.21;97822.59;7396336;19;20039;-78
2023/03/22 07:31:15;;;;;;;6.45;1.77;;;;;;;29.89;29.42;97827.41;7394847;19;20567;-78
2023/03/22 07:33:56;;;;;;;10.15;1.92;;;;;;;30.29;29.31;97827.44;7391193;19;20015;-79
2023/03/22 07:36:25;;;;;;;0.60;0.60;;;;;;;30.42;29.31;97826.53;7391818;19;20011;-80
2023/03/22 07:38:52;;;;;;;18.17;1.38;;;;;;;30.45;29.65;97828.09;7396453;19;20023;-80
2023/03/22 07:41:28;;;;;;;10.32;2.60;;;;;;;30.46;29.20;97838.16;7394222;19;20007;-80
2023/03/22 07:44:15;;;;;;;9.40;1.02;;;;;;;30.43;29.18;97837.34;7393407;19;20508;-80
2023/03/22 07:46:46;;;;;;;1.35;1.08;;;;;;;29.58;29.83;97841.94;7393155;19;20017;-80
2023/03/22 07:49:36;;;;;;;2.25;1.05;;;;;;;29.52;30.02;97835.94;7390951;19;20011;-80
2023/03/22 07:52:12;;;;;;;4.93;0.90;;;;;;;29.64;30.08;97835.69;7390979;19;20014;-80
2023/03/22 07:54:41;;;;;;;5.25;1.38;;;;;;;28.03;31.70;97838.06;7391881;19;20018;-80
2023/03/22 07:57:08;;;;;;;3.28;1.45;;;;;;;29.29;30.50;97827.84;7391754;19;20017;-81
2023/03/22 07:59:39;;;;;;;;;;;;;;;29.96;30.02;97817.63;7391082;19;20018;-80
2023/03/22 08:02:05;;;;;;;;;;;;;;;30.12;29.72;97825.38;7392177;19;19974;-79
2023/03/22 08:04:40;;;;;;;;;;;;;;;30.03;29.99;97817.84;7391183;19;19923;-80
2023/03/22 08:07:17;;;;;;;;;;;;;;;29.82;30.40;97828.56;7392465;19;19926;-80
2023/03/22 08:09:44;;;;;;;;;;;;;;;29.61;30.68;97825.53;7391574;19;20560;-80
2023/03/22 08:12:10;;;;;;;;;;;;;;;29.79;30.33;97824.16;7390206;19;19922;-80
2023/03/22 08:14:38;;;;;;;;;;;;;;;30.04;30.05;97827.94;7391042;19;20352;-80
2023/03/22 08:17:08;;;;;;;;;;;;;;;30.46;29.62;97823.78;7391875;19;20249;-78
2023/03/22 08:19:34;;;;;;;;;;;;;;;31.00;29.12;97822.88;7390820;19;19910;-79
2023/03/22 08:22:01;;;;;;;;;;;;;;;31.53;28.55;97833.25;7391705;19;19943;-79
2023/03/22 08:24:53;;;;;;;;;;;;;;;31.64;28.67;97823.53;7392139;19;19923;-79
2023/03/22 08:27:26;;;;;;;;;;;;;;;31.00;29.26;97822.88;7393452;19;19915;-79
2023/03/22 08:29:52;;;;;;;;;;;;;;;31.65;28.74;97814.22;7392034;19;19914;-79
2023/03/22 08:32:18;;;;;;;;;;;;;;;31.64;28.47;97817.78;7391019;19;19926;-81
2023/03/22 08:34:44;;;;;;;;;;;;;;;31.48;28.53;97815.13;7390685;19;19947;-81
2023/03/22 08:37:11;;;;;;;;;;;;;;;30.23;28.90;97818.63;7392363;19;19940;-80
2023/03/22 08:39:38;;;;;;;;;;;;;;;30.77;29.30;97814.13;7390703;19;19942;-80
2023/03/22 08:42:24;;;;;;;;;;;;;;;31.31;28.14;97827.50;7390228;19;20394;-81
2023/03/22 08:44:51;;;;;;;;;;;;;;;31.05;27.42;97823.75;7390727;19;19919;-80
2023/03/22 08:47:18;;;;;;;;;;;;;;;30.78;27.83;97830.69;7391248;19;19980;-81
2023/03/22 08:49:45;;;;;;;;;;;;;;;30.60;28.56;97832.94;7390294;19;19919;-79
2023/03/22 08:52:21;;;;;;;;;;;;;;;30.87;27.66;97828.84;7390183;19;19934;-80
2023/03/22 08:55:07;;;;;;;;;;;;;;;30.81;27.75;97829.38;7389710;19;19935;-80
2023/03/22 08:57:52;;;;;;;;;;;;;;;30.43;28.08;97831.59;7390994;19;19942;-80
2023/03/22 09:00:34;;;;;;;;;;;;;;;30.19;28.34;97841.44;7392230;19;19918;-80
2023/03/22 09:03:12;;;;;;;;;;;;;;;29.28;28.79;97839.97;7389462;19;20645;-80
2023/03/22 09:05:39;;;;;;;;;;;;;;;31.70;26.85;97847.50;7389741;19;19926;-80
2023/03/22 09:08:06;;;;;;;;;;;;;;;32.46;26.11;97846.22;7389562;19;19939;-80
2023/03/22 09:10:38;;;;;;;;;;;;;;;32.52;26.09;97848.56;7389868;19;20330;-80
2023/03/22 09:13:06;;;;;;;;;;;;;;;32.69;26.02;97850.47;7386591;19;19919;-79
2023/03/22 09:15:32;;;;;;;;;;;;;;;32.44;25.48;97843.28;7389207;19;20330;-80
2023/03/22 09:18:08;;;;;;;;;;;;;;;31.26;26.76;97849.63;7392092;19;19922;-80
2023/03/22 09:20:35;;;;;;;;;;;;;;;30.77;27.26;97846.47;7389126;19;19918;-81
2023/03/22 09:23:02;;;;;;;;;;;;;;;30.67;26.69;97837.47;7389055;19;20629;-80
2023/03/22 09:25:27;;;;;;;;;;;;;;;30.41;26.38;97857.38;7387716;19;19933;-80
2023/03/22 09:27:53;;;;;;;;;;;;;;;30.63;26.31;97852.44;7390410;19;19919;-80
2023/03/22 09:30:20;;;;;;;;;;;;;;;30.92;26.38;97845.59;7391851;19;19930;-80
2023/03/22 09:32:46;;;;;;;;;;;;;;;30.93;26.90;97847.06;7389517;19;19919;-80
2023/03/22 09:35:15;;;;;;;;;;;;;;;30.45;26.85;97845.31;7387855;19;19934;-79
2023/03/22 09:37:53;;;;;;;;;;;;;;;30.28;27.29;97837.44;7390732;19;19915;-81
2023/03/22 09:40:19;;;;;;;;;;;;;;;29.80;27.46;97837.09;7389857;19;19915;-80
2023/03/22 09:42:49;;;;;;;;;;;;;;;30.30;27.21;97828.94;7388328;19;20729;-80
2023/03/22 09:45:34;;;;;;;;;;;;;;;30.44;27.76;97838.09;7387960;19;19911;-82
2023/03/22 09:48:02;;;;;;;;;;;;;;;30.40;28.47;97830.06;7394861;19;19979;-93
2023/03/22 09:50:30;;;;;;;;;;;;;;;30.33;28.20;97819.00;7390723;19;20440;-84
2023/03/22 09:52:56;;;;;;;;;;;;;;;30.18;27.90;97828.47;7390647;19;20510;-84
2023/03/22 09:55:40;;;;;;;;;;;;;;;30.27;27.68;97828.13;7392005;19;19918;-82
2023/03/22 09:58:15;;;;;;;;;;;;;;;30.80;27.66;97821.41;7394567;19;19918;-84
2023/03/22 10:00:44;;;;;;;;;;;;;;;31.07;27.73;97830.31;7391158;19;19953;-85
2023/03/22 10:03:16;;;;;;;;;;;;;;;30.97;27.76;97829.94;7391593;19;19907;-84
2023/03/22 10:05:41;;;;;;;;;;;;;;;31.04;28.03;97833.75;7389075;19;19926;-83
2023/03/22 10:08:20;;;;;;;;;;;;;;;30.89;28.09;97832.53;7393063;19;20251;-83
2023/03/22 10:10:46;;;;;;;;;;;;;;;30.80;28.04;97836.50;7391365;19;19925;-83
2023/03/22 10:13:21;;;;;;;;;;;;;;;30.32;28.29;97838.38;7397781;19;19997;-89
2023/03/22 10:15:49;;;;;;;;;;;;;;;17.71;44.54;97855.50;7397026;19;19943;-87
2023/03/22 10:18:18;;;;;;;;;;;;;;;15.70;60.69;97859.66;7400314;19;19925;-89
2023/03/22 10:20:47;;;;;;;;;;;;;;;12.98;97.63;97880.03;7396228;19;19923;-89
2023/03/22 10:23:21;;;;;;;;;;;;;;;13.51;100.00;97869.50;7398568;19;19937;-88
2023/03/22 10:25:49;;;;;;;;;;;;;;;12.58;100.00;97870.19;7398276;19;19922;-87
2023/03/22 10:28:18;;;;;;;;;;;;;;;14.02;100.00;97855.78;7400465;19;20325;-87
2023/03/22 10:30:49;;;;;;;;;;;;;;;12.97;100.00;97861.00;7398756;19;20244;-87
2023/03/22 10:33:20;;;;;;;;;;;;;;;13.03;100.00;97858.84;7398737;19;19936;-88
2023/03/22 10:35:47;;;;;;;;;;;;;;;13.06;100.00;97855.00;7398178;19;19943;-87
2023/03/22 10:38:33;;;;;;;;;;;;;;;17.37;84.95;97855.25;7401452;19;20268;-86
2023/03/22 10:41:00;;;;;;;;;;;;;;;14.98;100.00;97853.44;7398754;19;19910;-86
2023/03/22 10:43:26;;;;;;;;;;;;;;;13.75;100.00;97865.63;7398023;19;19983;-85
2023/03/22 10:45:53;;;;;;;;;;;;;;;14.48;100.00;97840.84;7398167;19;19922;-87
2023/03/22 10:48:25;;;;;;;;;;;;;;;14.37;96.01;97853.09;7401799;19;19923;-87
2023/03/22 10:50:52;;;;;;;;;;;;;;;14.65;93.02;97860.72;7398782;19;19942;-89
2023/03/22 10:53:35;;;;;;;;;;;;;;;14.66;90.12;97867.81;7398072;19;19919;-88
2023/03/22 10:56:02;;;;;;;;;;;;;;;14.02;92.85;97875.38;7398173;19;19942;-88
2023/03/22 10:58:29;;;;;;;;;;;;;;;14.15;92.91;97869.69;7401775;19;19907;-87
2023/03/22 11:00:58;;;;;;;;;;;;;;;14.03;91.98;97862.88;7402232;19;20262;-88
2023/03/22 11:03:27;;;;;;;;;;;;;;;14.91;85.95;97854.91;7398334;19;20310;-88
2023/03/22 11:06:13;;;;;;;;;;;;;;;14.15;90.11;97864.84;7397685;19;19947;-88
2023/03/22 11:08:50;;;;;;;;;;;;;;;15.24;75.19;97863.63;7400668;19;20277;-85
2023/03/22 11:11:18;;;;;;;;;;;;;;;13.46;98.05;97873.91;7396219;19;19915;-85
2023/03/22 11:13:53;;;;;;;;;;;;;;;14.47;85.94;97877.81;7397386;19;19915;-85
2023/03/22 11:16:19;;;;;;;;;;;;;;;13.95;90.40;97878.84;7396775;19;20358;-86
2023/03/22 11:18:45;;;;;;;;;;;;;;;14.16;92.65;97871.94;7399996;19;20231;-85
2023/03/22 11:21:13;;;;;;;;;;;;;;;18.44;84.66;97862.44;7396011;19;19990;-85
2023/03/22 11:23:41;;;;;;;;;;;;;;;14.04;84.73;97861.56;7395951;19;19931;-84
2023/03/22 11:26:12;;;;;;;;;;;;;;;14.65;83.53;97860.72;7395401;19;19918;-83
2023/03/22 11:28:45;;;;;;;;;;;;;;;16.00;88.18;97859.69;7399239;19;20000;-85
2023/03/22 11:31:13;;;;;;;;;;;;;;;15.62;82.69;97851.22;7397009;19;19926;-85
2023/03/22 11:33:52;;;;;;;;;;;;;;;15.99;83.99;97852.56;7396241;19;19915;-85
2023/03/22 11:36:18;;;;;;;;;;;;;;;15.97;83.07;97843.97;7395968;19;19935;-86
2023/03/22 11:38:44;;;;;;;;;;;;;;;18.52;69.06;97851.09;7400577;19;19923;-85
2023/03/22 11:41:19;;;;;;;;;;;;;;;16.62;70.72;97833.81;7398430;19;19915;-86
2023/03/22 11:43:47;;;;;;;;;;;;;;;28.24;40.36;97826.13;7397499;19;19957;-84
2023/03/22 11:46:15;;;;;;;;;;;;;;;19.99;47.38;97848.91;7397494;19;19925;-85
2023/03/22 11:48:42;;;;;;;;;;;;;;;16.97;59.74;97843.25;7401693;19;19915;-85
2023/03/22 11:51:12;;;;;;;;;;;;;;;16.33;64.71;97836.06;7396200;19;19923;-84
2023/03/22 11:53:40;;;;;;;;;;;;;;;16.26;69.36;97836.09;7396131;19;20345;-87
2023/03/22 11:56:10;;;;;;;;;;;;;;;16.29;74.30;97841.31;7394641;19;19946;-83
2023/03/22 11:58:36;;;;;;;;;;;;;;;16.93;71.01;97834.47;7398743;19;20365;-86
2023/03/22 12:01:03;;;;;;;;;;;;;;;16.57;72.64;97831.94;7397311;19;19926;-86
2023/03/22 12:03:34;;;;;;;;;;;;;;;16.62;71.66;97834.56;7397556;19;20370;-84
2023/03/22 12:06:03;;;;;;;;;;;;;;;16.60;70.25;97831.56;7396819;19;19926;-86
2023/03/22 12:08:32;;;;;;;;;;;;;;;16.83;68.22;97827.94;7399232;19;19911;-84
2023/03/22 12:11:06;;;;;;;;;;;;;;;16.37;72.37;97825.19;7396052;19;19923;-89
2023/03/22 12:13:38;;;;;;;;;;;;;;;16.27;70.88;97820.72;7395283;19;19925;-86
2023/03/22 12:16:05;;;;;;;;;;;;;;;16.49;75.20;97809.47;7394681;19;19922;-86
2023/03/22 12:18:44;;;;;;;;;;;;;;;16.73;76.29;97807.34;7399375;19;20330;-86